createdAt,value
2022-10-19T03:10:47.256Z,2.97
2022-10-19T03:13:49.700Z,2.75
2022-10-19T03:16:51.810Z,4.53
2022-10-19T03:19:54.133Z,4.40
2022-10-19T03:22:56.230Z,5.53
2022-10-19T03:25:58.589Z,6.50
2022-10-19T03:29:00.666Z,4.18
2022-10-19T03:32:03.428Z,10.63
2022-10-19T03:35:06.124Z,4.75
2022-10-19T03:38:08.448Z,2.42
2022-10-19T03:41:13.610Z,3.70
2022-10-19T03:44:15.928Z,3.58
2022-10-19T03:47:17.963Z,7.07
2022-10-19T03:50:21.144Z,4.95
2022-10-19T03:53:23.226Z,3.67
2022-10-19T03:56:27.580Z,3.25
2022-10-19T03:59:29.650Z,6.68
2022-10-19T04:02:31.966Z,5.62
2022-10-19T04:05:34.312Z,5.03
2022-10-19T04:08:36.380Z,2.40
2022-10-19T04:11:38.864Z,5.00
2022-10-19T04:14:56.206Z,4.68
2022-10-19T04:17:59.403Z,5.47
2022-10-19T04:21:03.945Z,4.00
2022-10-19T04:24:13.641Z,5.50
2022-10-19T04:27:15.702Z,5.60
2022-10-19T04:30:18.009Z,4.45
2022-10-19T04:33:20.212Z,6.25
2022-10-19T04:36:23.000Z,5.35
2022-10-19T04:39:25.031Z,9.18
2022-10-19T04:42:27.343Z,7.62
2022-10-19T04:45:29.393Z,10.07
2022-10-19T04:48:32.017Z,14.13
2022-10-19T04:51:34.599Z,3.75
2022-10-19T04:54:36.951Z,5.45
2022-10-19T04:57:39.000Z,6.00
2022-10-19T05:00:41.383Z,4.57
2022-10-19T05:03:44.423Z,6.45
2022-10-19T05:06:46.757Z,3.40
2022-10-19T05:09:48.833Z,6.43
2022-10-19T05:12:51.140Z,6.43
2022-10-19T05:15:58.049Z,6.05
2022-10-19T05:19:01.559Z,3.87
2022-10-19T05:22:03.672Z,5.85
2022-10-19T05:25:07.409Z,4.60
2022-10-19T05:28:09.440Z,7.07
2022-10-19T05:31:18.439Z,7.97
2022-10-19T05:34:20.612Z,3.35
2022-10-19T05:37:23.349Z,4.43
2022-10-19T05:40:25.624Z,3.80
2022-10-19T05:43:27.984Z,2.95
2022-10-19T05:46:31.097Z,3.83
2022-10-19T05:49:33.432Z,6.45
2022-10-19T05:52:35.491Z,5.03
2022-10-19T05:55:37.826Z,5.20
2022-10-19T05:58:40.427Z,2.97
2022-10-19T06:01:42.912Z,3.95
2022-10-19T06:04:45.282Z,5.50
2022-10-19T06:07:47.330Z,3.08
2022-10-19T06:10:50.249Z,7.87
2022-10-19T06:13:55.779Z,5.35
2022-10-19T06:16:58.110Z,3.15
2022-10-19T06:20:00.161Z,3.80
2022-10-19T06:23:02.583Z,4.35
2022-10-19T06:26:10.834Z,3.70
2022-10-19T06:29:13.149Z,3.90
2022-10-19T06:32:15.285Z,6.62
2022-10-19T06:35:18.027Z,3.72
2022-10-19T06:38:20.349Z,2.42
2022-10-19T06:41:23.564Z,1.12
2022-10-19T06:44:25.649Z,3.17
2022-10-19T06:47:33.218Z,3.78
2022-10-19T06:50:35.526Z,8.35
2022-10-19T06:53:37.946Z,6.32
2022-10-19T06:56:40.067Z,15.15
2022-10-19T06:59:42.415Z,3.75
2022-10-19T07:02:44.541Z,2.90
2022-10-19T07:05:53.607Z,3.67
2022-10-19T07:08:55.694Z,3.12
2022-10-19T07:11:57.987Z,4.03
2022-10-19T07:15:00.056Z,2.72
2022-10-19T07:18:02.382Z,1.73
2022-10-19T07:21:07.267Z,2.67
2022-10-19T07:24:09.874Z,2.05
2022-10-19T07:27:12.725Z,2.45
2022-10-19T07:30:15.445Z,3.37
2022-10-19T07:36:25.798Z,3.53
2022-10-19T07:39:27.882Z,3.85
2022-10-19T07:42:33.018Z,2.85
2022-10-19T07:45:35.162Z,3.50
2022-10-19T07:48:37.637Z,4.75
2022-10-19T07:51:40.395Z,4.72
2022-10-19T07:54:42.850Z,621.12
2022-10-19T07:57:49.219Z,645.00
2022-10-19T08:00:51.573Z,667.60
2022-10-19T08:07:18.021Z,677.37
2022-10-19T08:10:20.358Z,677.55
2022-10-19T08:13:23.585Z,677.67
2022-10-19T08:16:32.754Z,686.85
2022-10-19T08:19:35.280Z,684.17
2022-10-19T08:22:37.856Z,692.03
2022-10-19T08:25:39.947Z,686.47
2022-10-19T08:28:42.335Z,682.83
2022-10-19T08:31:46.350Z,691.45
2022-10-19T08:34:48.655Z,691.05
2022-10-19T08:37:51.002Z,682.03
2022-10-19T08:40:53.876Z,684.83
2022-10-19T08:43:59.162Z,676.35
2022-10-19T08:50:24.512Z,661.90
2022-10-19T08:53:50.238Z,680.20
2022-10-19T08:57:22.393Z,662.03
2022-10-19T09:00:43.200Z,676.63
2022-10-19T09:04:07.377Z,655.75
2022-10-19T09:07:26.011Z,663.22
2022-10-19T09:10:40.611Z,663.33
2022-10-19T09:14:05.849Z,657.67
2022-10-19T09:17:15.341Z,649.63
2022-10-19T09:20:25.177Z,657.00
2022-10-19T09:23:42.606Z,646.75
2022-10-19T09:26:55.033Z,662.12
2022-10-19T09:30:01.194Z,646.95
2022-10-19T09:33:03.696Z,655.47
2022-10-19T09:36:07.838Z,648.03
2022-10-19T09:39:12.975Z,639.75
2022-10-19T09:42:33.201Z,665.28
2022-10-19T09:46:11.603Z,662.10
2022-10-19T09:49:37.563Z,654.95
2022-10-19T09:52:40.774Z,648.37
2022-10-19T09:55:44.100Z,670.05
2022-10-19T09:58:58.035Z,680.40
2022-10-19T10:02:11.480Z,672.65
2022-10-19T10:05:15.160Z,670.17
2022-10-19T10:08:25.593Z,668.22
2022-10-19T10:11:32.547Z,677.62
2022-10-19T10:14:39.833Z,660.22
2022-10-19T10:17:46.180Z,651.28
2022-10-19T10:21:12.097Z,667.72
2022-10-19T10:24:14.317Z,659.15
2022-10-19T10:27:30.080Z,652.37
2022-10-19T10:30:36.292Z,666.35
2022-10-19T10:33:46.160Z,652.13
2022-10-19T10:36:51.486Z,664.78
2022-10-19T10:39:57.905Z,655.10
2022-10-19T10:43:08.686Z,666.00
2022-10-19T10:46:19.675Z,670.58
2022-10-19T10:49:42.642Z,646.28
2022-10-19T10:53:00.866Z,658.97
2022-10-19T10:56:05.694Z,645.95
2022-10-19T10:59:26.436Z,657.67
2022-10-19T11:02:46.241Z,643.22
2022-10-19T11:05:53.218Z,645.95
2022-10-19T11:09:21.832Z,637.83
2022-10-19T11:12:35.797Z,640.40
2022-10-19T11:15:55.192Z,639.15
2022-10-19T11:19:06.719Z,622.00
2022-10-19T11:22:28.308Z,626.33
2022-10-19T11:25:35.869Z,620.42
2022-10-19T11:28:56.635Z,637.55
2022-10-19T11:31:58.718Z,625.12
2022-10-19T11:35:15.165Z,631.47
2022-10-19T11:38:20.863Z,643.30
2022-10-19T11:42:06.608Z,635.10
2022-10-19T11:45:48.584Z,657.72
2022-10-19T11:49:13.004Z,666.67
2022-10-19T11:52:27.315Z,667.03
2022-10-19T11:55:54.578Z,673.28
2022-10-19T11:59:21.630Z,672.72
2022-10-19T12:03:03.714Z,650.12
2022-10-19T12:06:31.990Z,682.95
2022-10-19T12:09:57.848Z,656.85
2022-10-19T12:13:08.878Z,656.03
2022-10-19T12:16:14.143Z,651.92
2022-10-19T12:22:25.135Z,653.72
2022-10-19T12:25:28.022Z,667.40
2022-10-19T12:28:37.005Z,654.42
2022-10-19T12:31:40.432Z,648.95
2022-10-19T12:34:52.461Z,648.28
2022-10-19T12:38:00.445Z,660.10
2022-10-19T12:41:12.994Z,648.70
2022-10-19T12:44:18.883Z,663.45
2022-10-19T12:47:23.429Z,664.25
2022-10-19T12:50:48.555Z,647.83
2022-10-19T12:53:50.845Z,666.03
2022-10-19T12:56:55.500Z,662.72
2022-10-19T13:00:24.231Z,664.08
2022-10-19T13:03:41.172Z,641.28
2022-10-19T13:06:49.270Z,662.05
2022-10-19T13:10:01.422Z,655.92
2022-10-19T13:13:04.556Z,653.70
2022-10-19T13:16:28.792Z,661.15
2022-10-19T13:19:30.961Z,666.03
2022-10-19T13:22:33.732Z,651.58
2022-10-19T13:25:39.598Z,654.70
2022-10-19T13:28:53.296Z,647.80
2022-10-19T13:31:55.403Z,653.47
2022-10-19T13:35:29.426Z,650.58
2022-10-19T13:38:39.055Z,652.28
2022-10-19T13:41:47.115Z,647.42
2022-10-19T13:44:52.726Z,652.33
2022-10-19T13:48:08.522Z,654.47
2022-10-19T13:51:42.849Z,643.45
2022-10-19T13:54:45.067Z,654.65
2022-10-19T13:58:05.906Z,651.65
2022-10-19T14:01:33.203Z,663.85
2022-10-19T14:04:54.482Z,659.25
2022-10-19T14:08:10.162Z,653.67
2022-10-19T14:11:14.164Z,662.17
2022-10-19T14:14:20.111Z,674.95
2022-10-19T14:17:25.445Z,670.85
2022-10-19T14:20:33.555Z,687.73
2022-10-19T14:23:40.031Z,666.30
2022-10-19T14:29:47.522Z,672.55
2022-10-19T14:32:49.823Z,679.00
2022-10-19T14:35:53.178Z,657.97
2022-10-19T14:38:56.295Z,649.05
2022-10-19T14:42:09.521Z,661.12
2022-10-19T14:45:19.827Z,664.72
2022-10-19T14:48:22.154Z,673.37
2022-10-19T14:51:43.095Z,671.35
2022-10-19T14:54:50.192Z,670.25
2022-10-19T14:57:53.773Z,673.42
2022-10-19T15:00:56.561Z,658.85
2022-10-19T15:03:58.776Z,647.25
2022-10-19T15:07:03.764Z,647.03
2022-10-19T15:10:16.541Z,665.17
2022-10-19T15:13:33.254Z,659.00
2022-10-19T15:16:58.171Z,636.62
